sensor_id;sensor_type;location;lat;lon;timestamp;temperature;humidity
5775;DHT22;2913;51.120;6.772;2022-07-06T00:00:43;16.30;99.90
5775;DHT22;2913;51.120;6.772;2022-07-06T00:03:09;16.30;99.90
5775;DHT22;2913;51.120;6.772;2022-07-06T00:05:34;16.30;99.90
5775;DHT22;2913;51.120;6.772;2022-07-06T00:08:03;16.20;99.90
5775;DHT22;2913;51.120;6.772;2022-07-06T00:10:28;16.20;99.90
5775;DHT22;2913;51.120;6.772;2022-07-06T00:12:54;16.10;99.90
5775;DHT22;2913;51.120;6.772;2022-07-06T00:15:19;16.10;99.90
5775;DHT22;2913;51.120;6.772;2022-07-06T00:17:48;16.00;99.90
5775;DHT22;2913;51.120;6.772;2022-07-06T00:20:13;16.00;99.90
5775;DHT22;2913;51.120;6.772;2022-07-06T00:22:39;15.90;99.90
5775;DHT22;2913;51.120;6.772;2022-07-06T00:25:05;15.90;99.90
5775;DHT22;2913;51.120;6.772;2022-07-06T00:27:33;15.90;99.90
5775;DHT22;2913;51.120;6.772;2022-07-06T00:29:59;15.80;99.90
5775;DHT22;2913;51.120;6.772;2022-07-06T00:32:24;15.80;99.90
5775;DHT22;2913;51.120;6.772;2022-07-06T00:34:50;15.70;99.90
5775;DHT22;2913;51.120;6.772;2022-07-06T00:37:18;15.70;99.90
5775;DHT22;2913;51.120;6.772;2022-07-06T00:39:44;15.70;99.90
5775;DHT22;2913;51.120;6.772;2022-07-06T00:42:09;15.60;99.90
5775;DHT22;2913;51.120;6.772;2022-07-06T00:44:35;15.70;99.90
5775;DHT22;2913;51.120;6.772;2022-07-06T00:47:01;15.60;99.90
5775;DHT22;2913;51.120;6.772;2022-07-06T00:49:26;15.50;99.90
5775;DHT22;2913;51.120;6.772;2022-07-06T00:52:11;15.40;99.90
5775;DHT22;2913;51.120;6.772;2022-07-06T00:54:39;15.40;99.90
5775;DHT22;2913;51.120;6.772;2022-07-06T00:57:09;15.30;99.90
5775;DHT22;2913;51.120;6.772;2022-07-06T00:59:35;15.30;99.90
5775;DHT22;2913;51.120;6.772;2022-07-06T01:02:01;15.20;99.90
5775;DHT22;2913;51.120;6.772;2022-07-06T01:04:26;15.20;99.90
5775;DHT22;2913;51.120;6.772;2022-07-06T01:06:53;15.20;99.90
5775;DHT22;2913;51.120;6.772;2022-07-06T01:09:19;15.20;99.90
5775;DHT22;2913;51.120;6.772;2022-07-06T01:11:47;15.10;99.90
5775;DHT22;2913;51.120;6.772;2022-07-06T01:14:14;15.00;99.90
5775;DHT22;2913;51.120;6.772;2022-07-06T01:16:40;15.00;99.90
5775;DHT22;2913;51.120;6.772;2022-07-06T01:19:08;14.90;99.90
5775;DHT22;2913;51.120;6.772;2022-07-06T01:21:38;14.90;99.90
5775;DHT22;2913;51.120;6.772;2022-07-06T01:24:04;14.90;99.90
5775;DHT22;2913;51.120;6.772;2022-07-06T01:26:30;14.90;99.90
5775;DHT22;2913;51.120;6.772;2022-07-06T01:28:56;14.80;99.90
5775;DHT22;2913;51.120;6.772;2022-07-06T01:31:26;14.80;99.90
5775;DHT22;2913;51.120;6.772;2022-07-06T01:33:55;14.80;99.90
5775;DHT22;2913;51.120;6.772;2022-07-06T01:36:21;14.80;99.90
5775;DHT22;2913;51.120;6.772;2022-07-06T01:38:52;14.70;99.90
5775;DHT22;2913;51.120;6.772;2022-07-06T01:41:19;14.70;99.90
5775;DHT22;2913;51.120;6.772;2022-07-06T01:43:45;14.60;99.90
5775;DHT22;2913;51.120;6.772;2022-07-06T01:46:11;14.60;99.90
5775;DHT22;2913;51.120;6.772;2022-07-06T01:48:37;14.60;99.90
5775;DHT22;2913;51.120;6.772;2022-07-06T01:51:04;14.60;99.90
5775;DHT22;2913;51.120;6.772;2022-07-06T01:53:30;14.50;99.90
5775;DHT22;2913;51.120;6.772;2022-07-06T01:55:58;14.50;99.90
5775;DHT22;2913;51.120;6.772;2022-07-06T01:58:24;14.50;99.90
5775;DHT22;2913;51.120;6.772;2022-07-06T02:00:49;14.40;99.90
5775;DHT22;2913;51.120;6.772;2022-07-06T02:03:15;14.40;99.90
5775;DHT22;2913;51.120;6.772;2022-07-06T02:05:41;14.40;99.90
5775;DHT22;2913;51.120;6.772;2022-07-06T02:08:06;14.40;99.90
5775;DHT22;2913;51.120;6.772;2022-07-06T02:10:37;14.30;99.90
5775;DHT22;2913;51.120;6.772;2022-07-06T02:13:02;14.30;99.90
5775;DHT22;2913;51.120;6.772;2022-07-06T02:15:30;14.30;99.90
5775;DHT22;2913;51.120;6.772;2022-07-06T02:17:56;14.20;99.90
5775;DHT22;2913;51.120;6.772;2022-07-06T02:20:21;14.20;99.90
5775;DHT22;2913;51.120;6.772;2022-07-06T02:22:47;14.10;99.90
5775;DHT22;2913;51.120;6.772;2022-07-06T02:25:13;14.10;99.90
5775;DHT22;2913;51.120;6.772;2022-07-06T02:27:38;14.10;99.90
5775;DHT22;2913;51.120;6.772;2022-07-06T02:30:05;14.00;99.90
5775;DHT22;2913;51.120;6.772;2022-07-06T02:32:36;14.00;99.90
5775;DHT22;2913;51.120;6.772;2022-07-06T02:35:04;14.00;99.90
5775;DHT22;2913;51.120;6.772;2022-07-06T02:37:30;13.90;99.90
5775;DHT22;2913;51.120;6.772;2022-07-06T02:39:58;13.90;99.90
5775;DHT22;2913;51.120;6.772;2022-07-06T02:42:26;13.80;99.90
5775;DHT22;2913;51.120;6.772;2022-07-06T02:44:54;13.80;99.90
5775;DHT22;2913;51.120;6.772;2022-07-06T02:47:22;13.80;99.90
5775;DHT22;2913;51.120;6.772;2022-07-06T02:49:50;13.80;99.90
5775;DHT22;2913;51.120;6.772;2022-07-06T02:52:18;13.80;99.90
5775;DHT22;2913;51.120;6.772;2022-07-06T02:54:44;13.80;99.90
5775;DHT22;2913;51.120;6.772;2022-07-06T02:57:10;13.80;99.90
5775;DHT22;2913;51.120;6.772;2022-07-06T02:59:36;13.80;99.90
5775;DHT22;2913;51.120;6.772;2022-07-06T03:02:03;13.80;99.90
5775;DHT22;2913;51.120;6.772;2022-07-06T03:04:29;13.80;99.90
5775;DHT22;2913;51.120;6.772;2022-07-06T03:06:55;13.80;99.90
5775;DHT22;2913;51.120;6.772;2022-07-06T03:09:21;13.70;99.90
5775;DHT22;2913;51.120;6.772;2022-07-06T03:11:46;13.70;99.90
5775;DHT22;2913;51.120;6.772;2022-07-06T03:14:12;13.70;99.90
5775;DHT22;2913;51.120;6.772;2022-07-06T03:16:38;13.70;99.90
5775;DHT22;2913;51.120;6.772;2022-07-06T03:19:03;13.70;99.90
5775;DHT22;2913;51.120;6.772;2022-07-06T03:21:29;13.60;99.90
5775;DHT22;2913;51.120;6.772;2022-07-06T03:23:59;13.60;99.90
5775;DHT22;2913;51.120;6.772;2022-07-06T03:26:25;13.60;99.90
5775;DHT22;2913;51.120;6.772;2022-07-06T03:28:51;13.60;99.90
5775;DHT22;2913;51.120;6.772;2022-07-06T03:31:17;13.50;99.90
5775;DHT22;2913;51.120;6.772;2022-07-06T03:33:45;13.50;99.90
5775;DHT22;2913;51.120;6.772;2022-07-06T03:36:13;13.50;99.90
5775;DHT22;2913;51.120;6.772;2022-07-06T03:38:38;13.50;99.90
5775;DHT22;2913;51.120;6.772;2022-07-06T03:41:06;13.40;99.90
5775;DHT22;2913;51.120;6.772;2022-07-06T03:43:32;13.40;99.90
5775;DHT22;2913;51.120;6.772;2022-07-06T03:45:57;13.40;99.90
5775;DHT22;2913;51.120;6.772;2022-07-06T03:48:23;13.40;99.90
5775;DHT22;2913;51.120;6.772;2022-07-06T03:50:49;13.40;99.90
5775;DHT22;2913;51.120;6.772;2022-07-06T03:53:16;13.40;99.90
5775;DHT22;2913;51.120;6.772;2022-07-06T03:55:44;13.40;99.90
5775;DHT22;2913;51.120;6.772;2022-07-06T03:58:32;13.40;99.90
5775;DHT22;2913;51.120;6.772;2022-07-06T04:01:01;13.50;99.90
5775;DHT22;2913;51.120;6.772;2022-07-06T04:03:26;13.50;99.90
5775;DHT22;2913;51.120;6.772;2022-07-06T04:05:55;13.50;99.90
5775;DHT22;2913;51.120;6.772;2022-07-06T04:08:22;13.50;99.90
5775;DHT22;2913;51.120;6.772;2022-07-06T04:10:48;13.50;99.90
5775;DHT22;2913;51.120;6.772;2022-07-06T04:13:16;13.60;99.90
5775;DHT22;2913;51.120;6.772;2022-07-06T04:15:42;13.70;99.90
5775;DHT22;2913;51.120;6.772;2022-07-06T04:18:10;14.00;99.90
5775;DHT22;2913;51.120;6.772;2022-07-06T04:20:35;14.20;99.90
5775;DHT22;2913;51.120;6.772;2022-07-06T04:23:03;14.90;99.90
5775;DHT22;2913;51.120;6.772;2022-07-06T04:25:29;15.40;99.90
5775;DHT22;2913;51.120;6.772;2022-07-06T04:27:54;15.60;99.90
5775;DHT22;2913;51.120;6.772;2022-07-06T04:30:22;15.80;99.90
5775;DHT22;2913;51.120;6.772;2022-07-06T04:32:50;16.00;99.90
5775;DHT22;2913;51.120;6.772;2022-07-06T04:35:18;16.60;99.90
5775;DHT22;2913;51.120;6.772;2022-07-06T04:37:44;17.10;99.90
5775;DHT22;2913;51.120;6.772;2022-07-06T04:40:11;17.10;99.90
5775;DHT22;2913;51.120;6.772;2022-07-06T04:42:37;17.50;99.90
5775;DHT22;2913;51.120;6.772;2022-07-06T04:45:06;18.20;99.90
5775;DHT22;2913;51.120;6.772;2022-07-06T04:47:32;18.90;99.90
5775;DHT22;2913;51.120;6.772;2022-07-06T04:49:58;18.50;99.90
5775;DHT22;2913;51.120;6.772;2022-07-06T04:52:28;18.00;99.90
5775;DHT22;2913;51.120;6.772;2022-07-06T04:54:57;18.00;99.90
5775;DHT22;2913;51.120;6.772;2022-07-06T04:57:25;17.60;99.90
5775;DHT22;2913;51.120;6.772;2022-07-06T04:59:51;17.40;99.90
5775;DHT22;2913;51.120;6.772;2022-07-06T05:02:22;17.20;99.90
5775;DHT22;2913;51.120;6.772;2022-07-06T05:04:48;17.30;99.90
5775;DHT22;2913;51.120;6.772;2022-07-06T05:07:18;17.10;99.90
5775;DHT22;2913;51.120;6.772;2022-07-06T05:09:44;17.10;99.90
5775;DHT22;2913;51.120;6.772;2022-07-06T05:12:10;17.20;99.90
5775;DHT22;2913;51.120;6.772;2022-07-06T05:14:38;17.10;99.90
5775;DHT22;2913;51.120;6.772;2022-07-06T05:17:04;17.10;99.90
5775;DHT22;2913;51.120;6.772;2022-07-06T05:19:29;17.30;99.90
5775;DHT22;2913;51.120;6.772;2022-07-06T05:21:55;17.20;99.90
5775;DHT22;2913;51.120;6.772;2022-07-06T05:24:21;17.10;99.90
5775;DHT22;2913;51.120;6.772;2022-07-06T05:26:46;17.70;99.90
5775;DHT22;2913;51.120;6.772;2022-07-06T05:29:17;17.70;99.90
5775;DHT22;2913;51.120;6.772;2022-07-06T05:31:42;17.70;99.90
5775;DHT22;2913;51.120;6.772;2022-07-06T05:34:10;17.60;99.90
5775;DHT22;2913;51.120;6.772;2022-07-06T05:36:36;17.50;99.90
5775;DHT22;2913;51.120;6.772;2022-07-06T05:39:02;17.50;99.90
5775;DHT22;2913;51.120;6.772;2022-07-06T05:41:27;17.60;99.90
5775;DHT22;2913;51.120;6.772;2022-07-06T05:43:55;17.60;99.90
5775;DHT22;2913;51.120;6.772;2022-07-06T05:46:21;17.80;99.90
5775;DHT22;2913;51.120;6.772;2022-07-06T05:48:46;17.80;99.90
5775;DHT22;2913;51.120;6.772;2022-07-06T05:51:31;18.20;99.90
5775;DHT22;2913;51.120;6.772;2022-07-06T05:53:56;19.20;99.90
5775;DHT22;2913;51.120;6.772;2022-07-06T05:56:27;19.90;99.90
5775;DHT22;2913;51.120;6.772;2022-07-06T05:58:52;20.10;99.90
5775;DHT22;2913;51.120;6.772;2022-07-06T06:01:18;20.70;99.90
5775;DHT22;2913;51.120;6.772;2022-07-06T06:03:43;21.30;99.90
5775;DHT22;2913;51.120;6.772;2022-07-06T06:06:14;21.20;99.90
5775;DHT22;2913;51.120;6.772;2022-07-06T06:08:40;21.20;99.90
5775;DHT22;2913;51.120;6.772;2022-07-06T06:11:07;21.30;99.90
5775;DHT22;2913;51.120;6.772;2022-07-06T06:13:35;21.30;98.60
5775;DHT22;2913;51.120;6.772;2022-07-06T06:16:01;21.30;98.30
5775;DHT22;2913;51.120;6.772;2022-07-06T06:18:26;21.50;98.80
5775;DHT22;2913;51.120;6.772;2022-07-06T06:20:52;22.00;97.60
5775;DHT22;2913;51.120;6.772;2022-07-06T06:23:18;22.40;95.90
5775;DHT22;2913;51.120;6.772;2022-07-06T06:25:44;22.30;95.20
5775;DHT22;2913;51.120;6.772;2022-07-06T06:28:10;22.40;95.10
5775;DHT22;2913;51.120;6.772;2022-07-06T06:30:37;22.50;94.70
5775;DHT22;2913;51.120;6.772;2022-07-06T06:33:15;22.20;94.30
5775;DHT22;2913;51.120;6.772;2022-07-06T06:35:48;22.00;94.20
5775;DHT22;2913;51.120;6.772;2022-07-06T06:38:15;21.70;94.60
5775;DHT22;2913;51.120;6.772;2022-07-06T06:40:41;21.50;95.30
5775;DHT22;2913;51.120;6.772;2022-07-06T06:43:09;21.30;95.70
5775;DHT22;2913;51.120;6.772;2022-07-06T06:45:35;21.10;95.90
5775;DHT22;2913;51.120;6.772;2022-07-06T06:48:03;20.70;96.50
5775;DHT22;2913;51.120;6.772;2022-07-06T06:50:33;20.50;98.30
5775;DHT22;2913;51.120;6.772;2022-07-06T06:52:59;20.60;98.60
5775;DHT22;2913;51.120;6.772;2022-07-06T06:55:27;20.40;99.30
5775;DHT22;2913;51.120;6.772;2022-07-06T06:57:53;20.40;99.60
5775;DHT22;2913;51.120;6.772;2022-07-06T07:00:22;20.40;99.90
5775;DHT22;2913;51.120;6.772;2022-07-06T07:02:50;20.20;99.90
5775;DHT22;2913;51.120;6.772;2022-07-06T07:05:16;20.10;99.90
5775;DHT22;2913;51.120;6.772;2022-07-06T07:07:41;20.20;99.90
5775;DHT22;2913;51.120;6.772;2022-07-06T07:10:09;20.10;99.90
5775;DHT22;2913;51.120;6.772;2022-07-06T07:12:44;20.10;99.90
5775;DHT22;2913;51.120;6.772;2022-07-06T07:15:10;20.00;99.90
5775;DHT22;2913;51.120;6.772;2022-07-06T07:17:35;20.00;99.90
5775;DHT22;2913;51.120;6.772;2022-07-06T07:20:01;20.00;99.90
5775;DHT22;2913;51.120;6.772;2022-07-06T07:22:27;20.10;99.90
5775;DHT22;2913;51.120;6.772;2022-07-06T07:24:52;20.20;99.90
5775;DHT22;2913;51.120;6.772;2022-07-06T07:27:18;20.10;99.90
5775;DHT22;2913;51.120;6.772;2022-07-06T07:29:44;20.10;99.90
5775;DHT22;2913;51.120;6.772;2022-07-06T07:32:09;20.00;99.90
5775;DHT22;2913;51.120;6.772;2022-07-06T07:34:35;20.00;99.90
5775;DHT22;2913;51.120;6.772;2022-07-06T07:37:00;20.10;99.90
5775;DHT22;2913;51.120;6.772;2022-07-06T07:39:26;20.20;99.90
5775;DHT22;2913;51.120;6.772;2022-07-06T07:41:56;20.20;99.90
5775;DHT22;2913;51.120;6.772;2022-07-06T07:44:27;20.10;99.90
5775;DHT22;2913;51.120;6.772;2022-07-06T07:46:53;20.30;99.90
5775;DHT22;2913;51.120;6.772;2022-07-06T07:49:19;19.70;99.90
5775;DHT22;2913;51.120;6.772;2022-07-06T07:51:47;20.10;99.90
5775;DHT22;2913;51.120;6.772;2022-07-06T07:54:15;20.30;99.90
5775;DHT22;2913;51.120;6.772;2022-07-06T07:56:40;20.40;99.90
5775;DHT22;2913;51.120;6.772;2022-07-06T07:59:07;20.50;99.90
5775;DHT22;2913;51.120;6.772;2022-07-06T08:01:33;20.90;99.90
5775;DHT22;2913;51.120;6.772;2022-07-06T08:04:01;20.70;99.90
5775;DHT22;2913;51.120;6.772;2022-07-06T08:06:27;20.80;99.00
5775;DHT22;2913;51.120;6.772;2022-07-06T08:08:55;20.80;98.40
5775;DHT22;2913;51.120;6.772;2022-07-06T08:11:23;20.70;97.90
5775;DHT22;2913;51.120;6.772;2022-07-06T08:13:48;20.90;98.00
5775;DHT22;2913;51.120;6.772;2022-07-06T08:16:14;20.80;97.00
5775;DHT22;2913;51.120;6.772;2022-07-06T08:18:42;20.50;97.20
5775;DHT22;2913;51.120;6.772;2022-07-06T08:21:08;20.80;97.10
5775;DHT22;2913;51.120;6.772;2022-07-06T08:23:33;20.80;97.00
5775;DHT22;2913;51.120;6.772;2022-07-06T08:26:03;21.00;96.30
5775;DHT22;2913;51.120;6.772;2022-07-06T08:28:29;21.00;95.20
5775;DHT22;2913;51.120;6.772;2022-07-06T08:30:55;21.00;95.50
5775;DHT22;2913;51.120;6.772;2022-07-06T08:33:21;20.90;95.40
5775;DHT22;2913;51.120;6.772;2022-07-06T08:35:48;21.00;94.20
5775;DHT22;2913;51.120;6.772;2022-07-06T08:38:14;21.10;93.30
5775;DHT22;2913;51.120;6.772;2022-07-06T08:40:40;20.90;92.20
5775;DHT22;2913;51.120;6.772;2022-07-06T08:43:08;20.90;92.50
5775;DHT22;2913;51.120;6.772;2022-07-06T08:45:34;20.80;93.00
5775;DHT22;2913;51.120;6.772;2022-07-06T08:48:07;20.60;93.00
5775;DHT22;2913;51.120;6.772;2022-07-06T08:50:33;20.50;93.80
5775;DHT22;2913;51.120;6.772;2022-07-06T08:52:59;20.60;93.30
5775;DHT22;2913;51.120;6.772;2022-07-06T08:55:26;20.60;92.10
5775;DHT22;2913;51.120;6.772;2022-07-06T08:57:57;20.60;91.20
5775;DHT22;2913;51.120;6.772;2022-07-06T09:00:26;20.60;90.60
5775;DHT22;2913;51.120;6.772;2022-07-06T09:02:51;20.60;91.20
5775;DHT22;2913;51.120;6.772;2022-07-06T09:05:23;20.80;92.10
5775;DHT22;2913;51.120;6.772;2022-07-06T09:07:52;20.70;91.70
5775;DHT22;2913;51.120;6.772;2022-07-06T09:10:20;20.70;92.10
5775;DHT22;2913;51.120;6.772;2022-07-06T09:12:46;20.80;91.40
5775;DHT22;2913;51.120;6.772;2022-07-06T09:15:14;20.70;90.80
5775;DHT22;2913;51.120;6.772;2022-07-06T09:17:41;20.70;90.70
5775;DHT22;2913;51.120;6.772;2022-07-06T09:20:16;20.60;91.80
5775;DHT22;2913;51.120;6.772;2022-07-06T09:22:41;20.60;93.50
5775;DHT22;2913;51.120;6.772;2022-07-06T09:27:39;20.40;94.70
5775;DHT22;2913;51.120;6.772;2022-07-06T09:30:12;20.40;95.40
5775;DHT22;2913;51.120;6.772;2022-07-06T09:32:44;20.40;96.40
5775;DHT22;2913;51.120;6.772;2022-07-06T09:35:36;20.40;96.80
5775;DHT22;2913;51.120;6.772;2022-07-06T09:38:11;20.30;96.50
5775;DHT22;2913;51.120;6.772;2022-07-06T09:40:43;20.30;96.10
5775;DHT22;2913;51.120;6.772;2022-07-06T09:43:17;20.40;96.00
5775;DHT22;2913;51.120;6.772;2022-07-06T09:45:46;20.40;95.70
5775;DHT22;2913;51.120;6.772;2022-07-06T09:48:18;20.50;95.60
5775;DHT22;2913;51.120;6.772;2022-07-06T09:50:48;20.50;95.10
5775;DHT22;2913;51.120;6.772;2022-07-06T09:53:16;20.50;95.20
5775;DHT22;2913;51.120;6.772;2022-07-06T09:55:46;20.30;95.00
5775;DHT22;2913;51.120;6.772;2022-07-06T09:58:15;20.50;96.20
5775;DHT22;2913;51.120;6.772;2022-07-06T10:00:42;20.80;96.60
5775;DHT22;2913;51.120;6.772;2022-07-06T10:03:10;21.20;96.00
5775;DHT22;2913;51.120;6.772;2022-07-06T10:05:41;21.10;92.60
5775;DHT22;2913;51.120;6.772;2022-07-06T10:08:08;21.20;92.80
5775;DHT22;2913;51.120;6.772;2022-07-06T10:10:36;21.30;92.00
5775;DHT22;2913;51.120;6.772;2022-07-06T10:13:03;21.50;91.30
5775;DHT22;2913;51.120;6.772;2022-07-06T10:15:31;21.70;90.70
5775;DHT22;2913;51.120;6.772;2022-07-06T10:18:01;21.60;86.90
5775;DHT22;2913;51.120;6.772;2022-07-06T10:20:29;21.80;87.10
5775;DHT22;2913;51.120;6.772;2022-07-06T10:23:00;22.00;86.70
5775;DHT22;2913;51.120;6.772;2022-07-06T10:25:27;22.10;86.70
5775;DHT22;2913;51.120;6.772;2022-07-06T10:27:54;22.00;84.70
5775;DHT22;2913;51.120;6.772;2022-07-06T10:30:20;22.10;86.40
5775;DHT22;2913;51.120;6.772;2022-07-06T10:32:48;22.10;84.00
5775;DHT22;2913;51.120;6.772;2022-07-06T10:35:18;22.40;85.00
5775;DHT22;2913;51.120;6.772;2022-07-06T10:37:45;22.40;80.10
5775;DHT22;2913;51.120;6.772;2022-07-06T10:40:13;22.60;81.40
5775;DHT22;2913;51.120;6.772;2022-07-06T10:43:11;22.80;81.50
5775;DHT22;2913;51.120;6.772;2022-07-06T10:50:38;22.60;78.10
5775;DHT22;2913;51.120;6.772;2022-07-06T10:53:11;22.60;77.00
5775;DHT22;2913;51.120;6.772;2022-07-06T10:55:40;22.50;75.70
5775;DHT22;2913;51.120;6.772;2022-07-06T10:58:08;22.70;74.80
5775;DHT22;2913;51.120;6.772;2022-07-06T11:00:54;22.80;74.20
5775;DHT22;2913;51.120;6.772;2022-07-06T11:06:12;22.90;72.00
5775;DHT22;2913;51.120;6.772;2022-07-06T11:11:17;22.90;75.00
5775;DHT22;2913;51.120;6.772;2022-07-06T11:13:53;22.80;76.20
5775;DHT22;2913;51.120;6.772;2022-07-06T11:16:21;22.90;76.40
5775;DHT22;2913;51.120;6.772;2022-07-06T11:19:03;22.80;75.30
5775;DHT22;2913;51.120;6.772;2022-07-06T11:24:03;23.00;74.50
5775;DHT22;2913;51.120;6.772;2022-07-06T11:26:30;23.10;76.40
5775;DHT22;2913;51.120;6.772;2022-07-06T11:28:58;22.70;73.60
5775;DHT22;2913;51.120;6.772;2022-07-06T11:31:24;22.80;74.60
5775;DHT22;2913;51.120;6.772;2022-07-06T11:33:50;22.30;72.60
5775;DHT22;2913;51.120;6.772;2022-07-06T11:36:20;22.00;72.30
5775;DHT22;2913;51.120;6.772;2022-07-06T11:38:48;22.40;73.50
5775;DHT22;2913;51.120;6.772;2022-07-06T11:41:20;22.70;73.20
5775;DHT22;2913;51.120;6.772;2022-07-06T11:43:47;22.90;73.00
5775;DHT22;2913;51.120;6.772;2022-07-06T11:46:24;23.10;72.80
5775;DHT22;2913;51.120;6.772;2022-07-06T11:48:54;23.20;71.50
5775;DHT22;2913;51.120;6.772;2022-07-06T11:51:26;23.40;72.00
5775;DHT22;2913;51.120;6.772;2022-07-06T11:54:00;23.20;70.60
5775;DHT22;2913;51.120;6.772;2022-07-06T11:56:27;23.10;70.40
5775;DHT22;2913;51.120;6.772;2022-07-06T11:58:55;23.20;71.10
5775;DHT22;2913;51.120;6.772;2022-07-06T12:01:27;23.20;70.70
5775;DHT22;2913;51.120;6.772;2022-07-06T12:03:58;23.30;71.00
5775;DHT22;2913;51.120;6.772;2022-07-06T12:06:28;23.40;69.80
5775;DHT22;2913;51.120;6.772;2022-07-06T12:08:56;23.50;70.40
5775;DHT22;2913;51.120;6.772;2022-07-06T12:11:23;23.50;70.40
5775;DHT22;2913;51.120;6.772;2022-07-06T12:13:50;23.70;71.10
5775;DHT22;2913;51.120;6.772;2022-07-06T12:16:16;23.60;69.80
5775;DHT22;2913;51.120;6.772;2022-07-06T12:18:47;23.70;70.10
5775;DHT22;2913;51.120;6.772;2022-07-06T12:21:18;23.80;71.00
5775;DHT22;2913;51.120;6.772;2022-07-06T12:23:50;23.80;69.60
5775;DHT22;2913;51.120;6.772;2022-07-06T12:26:26;23.80;69.70
5775;DHT22;2913;51.120;6.772;2022-07-06T12:34:05;23.60;70.10
5775;DHT22;2913;51.120;6.772;2022-07-06T12:36:48;23.50;70.30
5775;DHT22;2913;51.120;6.772;2022-07-06T12:39:20;23.60;71.30
5775;DHT22;2913;51.120;6.772;2022-07-06T12:41:52;23.80;71.40
5775;DHT22;2913;51.120;6.772;2022-07-06T12:44:23;23.80;71.00
5775;DHT22;2913;51.120;6.772;2022-07-06T12:47:10;23.80;71.20
5775;DHT22;2913;51.120;6.772;2022-07-06T12:49:37;24.00;71.10
5775;DHT22;2913;51.120;6.772;2022-07-06T12:54:32;24.10;70.50
5775;DHT22;2913;51.120;6.772;2022-07-06T12:57:10;24.10;70.90
5775;DHT22;2913;51.120;6.772;2022-07-06T12:59:57;24.10;71.60
5775;DHT22;2913;51.120;6.772;2022-07-06T13:07:28;23.80;70.70
5775;DHT22;2913;51.120;6.772;2022-07-06T13:09:54;24.00;71.40
5775;DHT22;2913;51.120;6.772;2022-07-06T13:12:22;24.00;71.30
5775;DHT22;2913;51.120;6.772;2022-07-06T13:14:53;23.80;70.10
5775;DHT22;2913;51.120;6.772;2022-07-06T13:17:24;23.50;69.70
5775;DHT22;2913;51.120;6.772;2022-07-06T13:19:49;23.40;70.20
5775;DHT22;2913;51.120;6.772;2022-07-06T13:22:15;23.50;71.80
5775;DHT22;2913;51.120;6.772;2022-07-06T13:24:41;23.60;71.60
5775;DHT22;2913;51.120;6.772;2022-07-06T13:27:07;23.60;70.80
5775;DHT22;2913;51.120;6.772;2022-07-06T13:29:33;23.70;70.90
5775;DHT22;2913;51.120;6.772;2022-07-06T13:32:01;23.60;70.20
5775;DHT22;2913;51.120;6.772;2022-07-06T13:34:27;23.80;71.20
5775;DHT22;2913;51.120;6.772;2022-07-06T13:36:58;24.00;71.30
5775;DHT22;2913;51.120;6.772;2022-07-06T13:39:24;24.10;71.40
5775;DHT22;2913;51.120;6.772;2022-07-06T13:41:55;24.00;69.50
5775;DHT22;2913;51.120;6.772;2022-07-06T13:44:20;24.00;70.10
5775;DHT22;2913;51.120;6.772;2022-07-06T13:46:46;23.90;69.90
5775;DHT22;2913;51.120;6.772;2022-07-06T13:49:12;24.00;70.00
5775;DHT22;2913;51.120;6.772;2022-07-06T13:51:38;24.20;69.60
5775;DHT22;2913;51.120;6.772;2022-07-06T13:54:04;24.50;70.00
5775;DHT22;2913;51.120;6.772;2022-07-06T13:56:30;24.60;66.80
5775;DHT22;2913;51.120;6.772;2022-07-06T13:58:56;24.70;67.50
5775;DHT22;2913;51.120;6.772;2022-07-06T14:01:24;25.00;68.90
5775;DHT22;2913;51.120;6.772;2022-07-06T14:03:52;25.10;67.40
5775;DHT22;2913;51.120;6.772;2022-07-06T14:06:21;25.10;66.30
5775;DHT22;2913;51.120;6.772;2022-07-06T14:08:47;25.10;65.90
5775;DHT22;2913;51.120;6.772;2022-07-06T14:11:17;25.00;64.50
5775;DHT22;2913;51.120;6.772;2022-07-06T14:13:43;24.80;65.10
5775;DHT22;2913;51.120;6.772;2022-07-06T14:16:09;24.90;66.50
5775;DHT22;2913;51.120;6.772;2022-07-06T14:18:35;24.60;66.30
5775;DHT22;2913;51.120;6.772;2022-07-06T14:21:01;24.60;66.50
5775;DHT22;2913;51.120;6.772;2022-07-06T14:23:27;24.50;65.70
5775;DHT22;2913;51.120;6.772;2022-07-06T14:25:54;24.50;65.40
5775;DHT22;2913;51.120;6.772;2022-07-06T14:28:23;24.40;65.60
5775;DHT22;2913;51.120;6.772;2022-07-06T14:30:51;24.30;67.50
5775;DHT22;2913;51.120;6.772;2022-07-06T14:33:19;24.40;67.60
5775;DHT22;2913;51.120;6.772;2022-07-06T14:35:47;24.50;66.90
5775;DHT22;2913;51.120;6.772;2022-07-06T14:38:14;24.40;66.00
5775;DHT22;2913;51.120;6.772;2022-07-06T14:40:40;24.60;66.30
5775;DHT22;2913;51.120;6.772;2022-07-06T14:43:06;24.60;65.60
5775;DHT22;2913;51.120;6.772;2022-07-06T14:45:32;24.30;65.80
5775;DHT22;2913;51.120;6.772;2022-07-06T14:47:58;24.30;66.50
5775;DHT22;2913;51.120;6.772;2022-07-06T14:50:23;24.40;65.90
5775;DHT22;2913;51.120;6.772;2022-07-06T14:52:53;24.70;66.70
5775;DHT22;2913;51.120;6.772;2022-07-06T14:55:19;24.60;65.50
5775;DHT22;2913;51.120;6.772;2022-07-06T14:57:45;24.70;65.90
5775;DHT22;2913;51.120;6.772;2022-07-06T15:00:12;24.90;65.60
5775;DHT22;2913;51.120;6.772;2022-07-06T15:02:41;24.90;65.30
5775;DHT22;2913;51.120;6.772;2022-07-06T15:05:07;24.80;65.20
5775;DHT22;2913;51.120;6.772;2022-07-06T15:07:33;24.90;65.90
5775;DHT22;2913;51.120;6.772;2022-07-06T15:09:59;24.80;65.90
5775;DHT22;2913;51.120;6.772;2022-07-06T15:12:25;24.90;65.50
5775;DHT22;2913;51.120;6.772;2022-07-06T15:14:50;24.60;64.90
5775;DHT22;2913;51.120;6.772;2022-07-06T15:17:16;24.40;66.30
5775;DHT22;2913;51.120;6.772;2022-07-06T15:19:43;24.20;66.00
5775;DHT22;2913;51.120;6.772;2022-07-06T15:22:13;24.30;66.90
5775;DHT22;2913;51.120;6.772;2022-07-06T15:24:41;24.60;67.60
5775;DHT22;2913;51.120;6.772;2022-07-06T15:27:07;24.70;66.90
5775;DHT22;2913;51.120;6.772;2022-07-06T15:29:33;24.50;66.20
5775;DHT22;2913;51.120;6.772;2022-07-06T15:32:02;24.60;66.30
5775;DHT22;2913;51.120;6.772;2022-07-06T15:34:27;24.50;66.50
5775;DHT22;2913;51.120;6.772;2022-07-06T15:36:53;24.60;67.00
5775;DHT22;2913;51.120;6.772;2022-07-06T15:39:28;24.80;67.10
5775;DHT22;2913;51.120;6.772;2022-07-06T15:41:54;24.90;66.30
5775;DHT22;2913;51.120;6.772;2022-07-06T15:44:19;24.90;67.30
5775;DHT22;2913;51.120;6.772;2022-07-06T15:46:45;25.00;66.20
5775;DHT22;2913;51.120;6.772;2022-07-06T15:49:16;25.00;66.00
5775;DHT22;2913;51.120;6.772;2022-07-06T15:51:43;25.10;65.90
5775;DHT22;2913;51.120;6.772;2022-07-06T15:54:09;25.10;65.50
5775;DHT22;2913;51.120;6.772;2022-07-06T15:56:35;25.20;65.40
5775;DHT22;2913;51.120;6.772;2022-07-06T15:59:04;25.00;64.90
5775;DHT22;2913;51.120;6.772;2022-07-06T16:01:29;24.90;65.20
5775;DHT22;2913;51.120;6.772;2022-07-06T16:03:55;24.90;65.20
5775;DHT22;2913;51.120;6.772;2022-07-06T16:06:21;24.90;66.40
5775;DHT22;2913;51.120;6.772;2022-07-06T16:08:47;24.90;66.60
5775;DHT22;2913;51.120;6.772;2022-07-06T16:11:14;24.80;66.50
5775;DHT22;2913;51.120;6.772;2022-07-06T16:13:39;24.70;66.50
5775;DHT22;2913;51.120;6.772;2022-07-06T16:16:05;24.50;66.30
5775;DHT22;2913;51.120;6.772;2022-07-06T16:18:31;24.50;66.50
5775;DHT22;2913;51.120;6.772;2022-07-06T16:20:58;24.50;66.00
5775;DHT22;2913;51.120;6.772;2022-07-06T16:23:29;24.50;66.50
5775;DHT22;2913;51.120;6.772;2022-07-06T16:25:54;24.50;65.50
5775;DHT22;2913;51.120;6.772;2022-07-06T16:28:20;24.50;65.10
5775;DHT22;2913;51.120;6.772;2022-07-06T16:30:46;24.40;66.20
5775;DHT22;2913;51.120;6.772;2022-07-06T16:33:12;24.40;66.50